Decoded Metar for KALW (WALLA WALLA in WA, USA) (IATA:ALW) | Meteo·Mobile Aviation Weather
aviador You're here:

KALW Decoded Metar

WALLA WALLA in WA, USA
Report Time2018-09-19 14:53:00
UTC Time2018-09-19 15:11:12
Flight Rules vfr VFR
WindCalm
Visibility9999 m
Phenomena:N/A
Clouds:N/A
Expected CloudBase > 4,400 ft AGL from Temp-Dew spread
CeilingNone
Temp13°C (ISA 0)
Dew Point02°C (47% RH)
AAT11.3°C
QNH1017 hPa
Density Alt1,201 ft
Elevation1,191 ft
Report Wrong Elevation
Raw Report
KALW 191453Z 00000KT 10SM CLR 13/02 A3003 RMK AO2 SLP168 T01280017
53014=

Extra information for KALW:More info

Metar Taf Metar & Taf Last 4 Metars F.Rules Stats Wind Profile Meteogram Temp Stats Airport Information Weather charts Add Link Nearby VenuesMetar ALERT Operation Metar Decoded Social comments

AIRNAV info for KALW